C0sta Favolosa — ICPK — position and weather

sailwx.info

Track history (hours):
 
Tides and Currents Weather Stations Pressure Air Temp Water Temp Dewpoint Dewpoint Depression Visibility Wind Speed Wind Dir Waves Ship Positions

C0sta Favolosa

Last reported at 2017-Nov-23 07:44 UTC. Time now 2017-Nov-23 20:49 UTC.
Position N 43°21' E 005°20'.

Length 289 m; draft 8.3 m.

Type: Ship. MMSI: 247311100.

Date/timePositionNaut miles runAvg speedWind from/ knotsBaromVisibWave heightAir tempDewpointWater temp
2017-Nov-23 07:44N 43°21' E 005°20'0 0.0
2017-Nov-23 07:27N 43°21' E 005°20'0 0.4
2017-Nov-23 06:58N 43°21' E 005°20'2 4.0
2017-Nov-23 06:30N 43°21' E 005°17'611.2
2017-Nov-23 06:00N 43°17' E 005°12'816.7
2017-Nov-23 05:30N 43°09' E 005°07'817.0
2017-Nov-23 05:00N 43°03' E 004°59'713.5
2017-Nov-23 04:30N 42°58' E 004°52'  
2017-Nov-20 00:30N 43°11' E 007°03'8115.3
2017-Nov-19 19:12N 43°09' E 005°13'417.1
2017-Nov-19 19:00N 43°11' E 005°09'816.4
2017-Nov-19 18:30N 43°18' E 005°13'5 2.4
2017-Nov-19 16:17N 43°21' E 005°20'0 0.0
2017-Nov-19 15:59N 43°21' E 005°20'0 0.0
2017-Nov-19 15:23N 43°21' E 005°20'0 0.0
2017-Nov-19 14:56N 43°21' E 005°20'0 0.0
2017-Nov-19 14:29N 43°21' E 005°20'0 0.0
2017-Nov-19 07:25N 43°21' E 005°20'0 0.3
2017-Nov-19 07:00N 43°21' E 005°20'3 5.4
2017-Nov-19 06:23N 43°19' E 005°15'3 7.6
2017-Nov-19 05:57N 43°17' E 005°12'916.1
2017-Nov-19 05:24N 43°11' E 005°03'16216.4
2017-Nov-18 19:34N 41°21' E 002°24'718.2
2017-Nov-18 19:12N 41°17' E 002°16'5 0.4
2017-Nov-18 06:45N 41°19' E 002°10'2 8.5
2017-Nov-18 06:30N 41°17' E 002°11'612.2
2017-Nov-18 06:00N 41°11' E 002°15'40 9.6
2017-Nov-18 01:53N 40°34' E 002°34'512.1
2017-Nov-18 01:30N 40°33' E 002°40'1812.0
2017-Nov-18 00:00N 40°31' E 003°04'25410.0
2017-Nov-16 22:26N 43°17' E 007°22'612.9
2017-Nov-16 21:59N 43°21' E 007°28'1113.2
2017-Nov-16 21:08N 43°29' E 007°39'213.3
2017-Nov-16 21:00N 43°30' E 007°41'713.6
2017-Nov-16 20:29N 43°35' E 007°48'1014.0
2017-Nov-16 19:46N 43°41' E 007°58'414.2
2017-Nov-16 19:28N 43°44' E 008°03'614.0
2017-Nov-16 19:00N 43°49' E 008°09'714.3
2017-Nov-16 18:30N 43°53' E 008°17'714.0
2017-Nov-16 18:00N 43°59' E 008°22'714.2
2017-Nov-16 17:30N 44°05' E 008°27'714.5
2017-Nov-16 17:00N 44°12' E 008°32'612.5
2017-Nov-16 16:31N 44°18' E 008°32'2 3.5
2017-Nov-16 15:58N 44°19' E 008°29'0 0.0
2017-Nov-16 15:25N 44°19' E 008°29'0 0.0
2017-Nov-16 14:55N 44°19' E 008°29'0 0.0
2017-Nov-16 14:25N 44°19' E 008°29'0 0.0
2017-Nov-16 13:55N 44°19' E 008°29'0 0.0
2017-Nov-16 13:28N 44°19' E 008°29'0 0.0
2017-Nov-16 12:58N 44°19' E 008°29'0 0.0
2017-Nov-16 12:28N 44°19' E 008°29'0 0.0
2017-Nov-16 11:58N 44°19' E 008°29'0 0.0
2017-Nov-16 11:25N 44°19' E 008°29'0 0.0
2017-Nov-16 10:58N 44°19' E 008°29'0 0.0
2017-Nov-16 10:27N 44°19' E 008°29'0 0.0
2017-Nov-16 10:00N 44°19' E 008°29'0 0.0
2017-Nov-16 09:27N 44°19' E 008°29'0 0.0
2017-Nov-16 08:57N 44°19' E 008°29'0 0.0
2017-Nov-16 08:27N 44°19' E 008°29'0 0.0
2017-Nov-16 07:57N 44°19' E 008°29'0 0.2
2017-Nov-16 07:30N 44°19' E 008°29'1 2.5
2017-Nov-16 07:00N 44°19' E 008°31'4 8.1
2017-Nov-16 06:30N 44°15' E 008°33'816.3
2017-Nov-16 06:00N 44°08' E 008°29'612.4
2017-Nov-16 05:30N 44°02' E 008°25'510.4
2017-Nov-16 05:00N 43°58' E 008°21'611.2
2017-Nov-16 04:30N 43°53' E 008°18'2016.1
2017-Nov-16 03:15N 43°41' E 007°55'516.2
2017-Nov-16 02:55N 43°38' E 007°49'716.5
2017-Nov-16 02:30N 43°33' E 007°41'816.9
2017-Nov-16 02:00N 43°28' E 007°32'917.0
2017-Nov-16 01:28N 43°23' E 007°23'816.8
2017-Nov-16 01:00N 43°18' E 007°14'916.5
2017-Nov-16 00:29N 43°13' E 007°05'8115.2
2017-Nov-15 19:08N 43°09' E 005°13'217.5
2017-Nov-15 19:00N 43°10' E 005°11'816.8
2017-Nov-15 18:30N 43°18' E 005°13'510.6
2017-Nov-15 18:00N 43°21' E 005°20'0 0.0
2017-Nov-15 14:12N 43°21' E 005°20'0 0.0
2017-Nov-15 13:54N 43°21' E 005°20'0 0.0
2017-Nov-15 11:30N 43°21' E 005°20'0 0.0
2017-Nov-15 11:00N 43°21' E 005°20'0 0.0
2017-Nov-15 09:00N 43°21' E 005°20'0 0.0
2017-Nov-15 07:48N 43°21' E 005°20'0 0.0
2017-Nov-15 07:30N 43°21' E 005°20'0 0.6
2017-Nov-15 06:58N 43°21' E 005°20'4 8.4
2017-Nov-15 06:30N 43°19' E 005°15'510.8
2017-Nov-15 06:00N 43°14' E 005°11'612.0
2017-Nov-15 05:29N 43°11' E 005°04'613.0
2017-Nov-15 05:00N 43°09' E 004°56'15616.0
2017-Nov-14 19:12N 41°21' E 002°23'10 1.1
2017-Nov-14 10:32N 41°19' E 002°10'0 8.5
2017-Nov-14 10:30N 41°18' E 002°11'  
Track history (hours):
 
Tides and Currents Weather Stations Pressure Air Temp Water Temp Dewpoint Dewpoint Depression Visibility Wind Speed Wind Dir Waves Ship Positions

C0sta Favolosa

Last reported at 2017-Nov-23 07:44 UTC. Time now 2017-Nov-23 20:49 UTC.
Position N 43°21' E 005°20'.

Length 289 m; draft 8.3 m.

Type: Ship. MMSI: 247311100.

Date/timePositionNaut miles runAvg speedWind from/ knotsBaromVisibWave heightAir tempDewpointWater temp
2017-Nov-23 07:44N 43°21' E 005°20'0 0.0
2017-Nov-23 07:27N 43°21' E 005°20'0 0.4
2017-Nov-23 06:58N 43°21' E 005°20'2 4.0
2017-Nov-23 06:30N 43°21' E 005°17'611.2
2017-Nov-23 06:00N 43°17' E 005°12'816.7
2017-Nov-23 05:30N 43°09' E 005°07'817.0
2017-Nov-23 05:00N 43°03' E 004°59'713.5
2017-Nov-23 04:30N 42°58' E 004°52'  
2017-Nov-20 00:30N 43°11' E 007°03'8115.3
2017-Nov-19 19:12N 43°09' E 005°13'417.1
2017-Nov-19 19:00N 43°11' E 005°09'816.4
2017-Nov-19 18:30N 43°18' E 005°13'5 2.4
2017-Nov-19 16:17N 43°21' E 005°20'0 0.0
2017-Nov-19 15:59N 43°21' E 005°20'0 0.0
2017-Nov-19 15:23N 43°21' E 005°20'0 0.0
2017-Nov-19 14:56N 43°21' E 005°20'0 0.0
2017-Nov-19 14:29N 43°21' E 005°20'0 0.0
2017-Nov-19 07:25N 43°21' E 005°20'0 0.3
2017-Nov-19 07:00N 43°21' E 005°20'3 5.4
2017-Nov-19 06:23N 43°19' E 005°15'3 7.6
2017-Nov-19 05:57N 43°17' E 005°12'916.1
2017-Nov-19 05:24N 43°11' E 005°03'16216.4
2017-Nov-18 19:34N 41°21' E 002°24'718.2
2017-Nov-18 19:12N 41°17' E 002°16'5 0.4
2017-Nov-18 06:45N 41°19' E 002°10'2 8.5
2017-Nov-18 06:30N 41°17' E 002°11'612.2
2017-Nov-18 06:00N 41°11' E 002°15'40 9.6
2017-Nov-18 01:53N 40°34' E 002°34'512.1
2017-Nov-18 01:30N 40°33' E 002°40'1812.0
2017-Nov-18 00:00N 40°31' E 003°04'25410.0
2017-Nov-16 22:26N 43°17' E 007°22'612.9
2017-Nov-16 21:59N 43°21' E 007°28'1113.2
2017-Nov-16 21:08N 43°29' E 007°39'213.3
2017-Nov-16 21:00N 43°30' E 007°41'713.6
2017-Nov-16 20:29N 43°35' E 007°48'1014.0
2017-Nov-16 19:46N 43°41' E 007°58'414.2
2017-Nov-16 19:28N 43°44' E 008°03'614.0
2017-Nov-16 19:00N 43°49' E 008°09'714.3
2017-Nov-16 18:30N 43°53' E 008°17'714.0
2017-Nov-16 18:00N 43°59' E 008°22'714.2
2017-Nov-16 17:30N 44°05' E 008°27'714.5
2017-Nov-16 17:00N 44°12' E 008°32'612.5
2017-Nov-16 16:31N 44°18' E 008°32'2 3.5
2017-Nov-16 15:58N 44°19' E 008°29'0 0.0
2017-Nov-16 15:25N 44°19' E 008°29'0 0.0
2017-Nov-16 14:55N 44°19' E 008°29'0 0.0
2017-Nov-16 14:25N 44°19' E 008°29'0 0.0
2017-Nov-16 13:55N 44°19' E 008°29'0 0.0
2017-Nov-16 13:28N 44°19' E 008°29'0 0.0
2017-Nov-16 12:58N 44°19' E 008°29'0 0.0
2017-Nov-16 12:28N 44°19' E 008°29'0 0.0
2017-Nov-16 11:58N 44°19' E 008°29'0 0.0
2017-Nov-16 11:25N 44°19' E 008°29'0 0.0
2017-Nov-16 10:58N 44°19' E 008°29'0 0.0
2017-Nov-16 10:27N 44°19' E 008°29'0 0.0
2017-Nov-16 10:00N 44°19' E 008°29'0 0.0
2017-Nov-16 09:27N 44°19' E 008°29'0 0.0
2017-Nov-16 08:57N 44°19' E 008°29'0 0.0
2017-Nov-16 08:27N 44°19' E 008°29'0 0.0
2017-Nov-16 07:57N 44°19' E 008°29'0 0.2
2017-Nov-16 07:30N 44°19' E 008°29'1 2.5
2017-Nov-16 07:00N 44°19' E 008°31'4 8.1
2017-Nov-16 06:30N 44°15' E 008°33'816.3
2017-Nov-16 06:00N 44°08' E 008°29'612.4
2017-Nov-16 05:30N 44°02' E 008°25'510.4
2017-Nov-16 05:00N 43°58' E 008°21'611.2
2017-Nov-16 04:30N 43°53' E 008°18'2016.1
2017-Nov-16 03:15N 43°41' E 007°55'516.2
2017-Nov-16 02:55N 43°38' E 007°49'716.5
2017-Nov-16 02:30N 43°33' E 007°41'816.9
2017-Nov-16 02:00N 43°28' E 007°32'917.0
2017-Nov-16 01:28N 43°23' E 007°23'816.8
2017-Nov-16 01:00N 43°18' E 007°14'916.5
2017-Nov-16 00:29N 43°13' E 007°05'8115.2
2017-Nov-15 19:08N 43°09' E 005°13'217.5
2017-Nov-15 19:00N 43°10' E 005°11'816.8
2017-Nov-15 18:30N 43°18' E 005°13'510.6
2017-Nov-15 18:00N 43°21' E 005°20'0 0.0
2017-Nov-15 14:12N 43°21' E 005°20'0 0.0
2017-Nov-15 13:54N 43°21' E 005°20'0 0.0
2017-Nov-15 11:30N 43°21' E 005°20'0 0.0
2017-Nov-15 11:00N 43°21' E 005°20'0 0.0
2017-Nov-15 09:00N 43°21' E 005°20'0 0.0
2017-Nov-15 07:48N 43°21' E 005°20'0 0.0
2017-Nov-15 07:30N 43°21' E 005°20'0 0.6
2017-Nov-15 06:58N 43°21' E 005°20'4 8.4
2017-Nov-15 06:30N 43°19' E 005°15'510.8
2017-Nov-15 06:00N 43°14' E 005°11'612.0
2017-Nov-15 05:29N 43°11' E 005°04'613.0
2017-Nov-15 05:00N 43°09' E 004°56'15616.0
2017-Nov-14 19:12N 41°21' E 002°23'10 1.1
2017-Nov-14 10:32N 41°19' E 002°10'0 8.5
2017-Nov-14 10:30N 41°18' E 002°11'  

Dump ship's entire track history